createdAt,value
2019-03-11T00:02:35.479Z,3.94
2019-03-11T00:06:42.419Z,4.02
2019-03-11T00:10:49.272Z,4.09
2019-03-11T00:14:56.166Z,4.12
2019-03-11T00:19:03.003Z,4.06
2019-03-11T00:23:09.953Z,4.03
2019-03-11T00:27:16.821Z,4.03
2019-03-11T00:31:23.686Z,4.12
2019-03-11T00:35:30.568Z,4.24
2019-03-11T00:39:37.417Z,4.35
2019-03-11T00:43:44.279Z,4.43
2019-03-11T00:48:01.312Z,4.49
2019-03-11T00:51:59.677Z,4.54
2019-03-11T00:56:06.522Z,4.44
2019-03-11T01:00:29.974Z,4.44
2019-03-11T01:04:37.891Z,4.49
2019-03-11T01:08:44.827Z,4.48
2019-03-11T01:12:51.624Z,4.49
2019-03-11T01:16:58.449Z,4.47
2019-03-11T01:21:05.262Z,4.49
2019-03-11T01:25:12.382Z,4.55
2019-03-11T01:29:19.277Z,4.61
2019-03-11T01:33:26.124Z,4.69
2019-03-11T01:37:32.953Z,4.75
2019-03-11T01:41:39.796Z,4.72
2019-03-11T01:45:46.628Z,4.80
2019-03-11T01:49:53.490Z,4.87
2019-03-11T01:54:00.349Z,4.85
2019-03-11T01:58:07.341Z,4.86
2019-03-11T02:02:14.180Z,4.93
2019-03-11T02:06:21.008Z,4.96
2019-03-11T02:10:27.852Z,4.99
2019-03-11T02:14:34.639Z,4.98
2019-03-11T02:18:41.633Z,5.08
2019-03-11T02:22:48.592Z,5.12
2019-03-11T02:26:55.413Z,5.16
2019-03-11T02:31:02.310Z,5.19
2019-03-11T02:35:09.474Z,5.20
2019-03-11T02:39:16.329Z,5.26
2019-03-11T02:43:23.256Z,5.27
2019-03-11T02:47:30.104Z,5.32
2019-03-11T02:51:36.944Z,5.27
2019-03-11T02:55:43.934Z,5.21
2019-03-11T02:59:50.816Z,5.25
2019-03-11T03:04:05.651Z,5.18
2019-03-11T03:08:12.451Z,5.26
2019-03-11T03:12:19.316Z,5.32
2019-03-11T03:16:26.259Z,5.38
2019-03-11T03:20:33.089Z,5.49
2019-03-11T03:24:40.067Z,5.51
2019-03-11T03:28:46.944Z,5.54
2019-03-11T03:32:53.927Z,5.57
2019-03-11T03:37:00.797Z,5.58
2019-03-11T03:41:08.429Z,5.65
2019-03-11T03:45:31.020Z,4.75
2019-03-11T03:49:37.975Z,4.25
2019-03-11T03:53:44.903Z,4.04
2019-03-11T03:57:51.776Z,4.00
2019-03-11T04:01:59.674Z,4.28
2019-03-11T04:06:06.550Z,4.18
2019-03-11T04:10:15.069Z,4.05
2019-03-11T04:14:21.960Z,4.11
2019-03-11T04:18:53.407Z,4.05
2019-03-11T04:23:01.361Z,3.98
2019-03-11T04:27:11.200Z,3.93
2019-03-11T04:31:18.121Z,3.92
2019-03-11T04:35:27.737Z,3.89
2019-03-11T04:39:37.741Z,3.87
2019-03-11T04:43:44.635Z,3.90
2019-03-11T04:47:51.586Z,3.93
2019-03-11T04:51:58.516Z,4.03
2019-03-11T04:56:05.439Z,3.96
2019-03-11T05:00:15.681Z,4.03
2019-03-11T05:04:22.590Z,3.96
2019-03-11T05:08:29.581Z,4.00
2019-03-11T05:12:36.511Z,3.95
2019-03-11T05:16:43.492Z,3.30
2019-03-11T05:20:50.490Z,2.91
2019-03-11T05:24:58.790Z,2.80
2019-03-11T05:29:05.966Z,2.64
2019-03-11T05:33:12.956Z,2.84
2019-03-11T05:37:20.066Z,2.73
2019-03-11T05:41:27.118Z,2.67
2019-03-11T05:45:33.991Z,2.77
2019-03-11T05:49:40.933Z,2.75
2019-03-11T05:53:47.820Z,2.75
2019-03-11T05:57:54.710Z,2.83
2019-03-11T06:02:01.738Z,2.81
2019-03-11T06:06:08.720Z,2.82
2019-03-11T06:10:17.121Z,2.79
2019-03-11T06:14:26.842Z,2.74
2019-03-11T06:18:55.438Z,2.66
2019-03-11T06:23:03.983Z,2.64
2019-03-11T06:27:10.824Z,2.41
2019-03-11T06:31:17.842Z,2.63
2019-03-11T06:35:24.755Z,2.59
2019-03-11T06:39:31.714Z,2.41
2019-03-11T06:43:38.628Z,2.78
2019-03-11T06:47:45.621Z,2.74
2019-03-11T06:51:52.514Z,2.72
2019-03-11T06:55:59.424Z,2.90
2019-03-11T07:00:08.326Z,2.80
2019-03-11T07:04:15.280Z,2.87
2019-03-11T07:08:23.402Z,2.99
2019-03-11T07:12:30.277Z,3.31
2019-03-11T07:16:38.528Z,3.39
2019-03-11T07:20:45.633Z,3.61
2019-03-11T07:24:52.526Z,3.86
2019-03-11T07:28:59.412Z,4.25
2019-03-11T07:33:07.170Z,4.01
2019-03-11T07:37:14.359Z,4.05
2019-03-11T07:41:21.433Z,4.37
2019-03-11T07:45:28.403Z,4.54
2019-03-11T07:49:35.354Z,4.72
2019-03-11T07:53:42.384Z,5.10
2019-03-11T07:57:49.365Z,5.37
2019-03-11T08:01:56.177Z,5.39
2019-03-11T08:06:03.922Z,5.57
2019-03-11T08:10:12.205Z,5.66
2019-03-11T08:14:19.186Z,5.99
2019-03-11T08:18:34.484Z,5.71
2019-03-11T08:22:34.710Z,5.58
2019-03-11T08:26:41.809Z,5.46
2019-03-11T08:30:49.308Z,5.85
2019-03-11T08:34:56.544Z,6.04
2019-03-11T08:39:04.697Z,6.12
2019-03-11T08:43:13.874Z,5.94
2019-03-11T08:47:20.855Z,5.99
2019-03-11T08:51:27.956Z,6.54
2019-03-11T08:55:34.904Z,6.99
2019-03-11T08:59:43.151Z,7.19
2019-03-11T09:03:50.141Z,7.18
2019-03-11T09:07:58.056Z,6.61
2019-03-11T09:12:05.956Z,6.13
2019-03-11T09:16:13.091Z,6.21
2019-03-11T09:20:22.356Z,5.77
2019-03-11T09:24:29.212Z,5.59
2019-03-11T09:28:36.108Z,5.80
2019-03-11T09:32:43.087Z,5.56
2019-03-11T09:36:49.956Z,5.59
2019-03-11T09:40:57.121Z,5.44
2019-03-11T09:45:06.082Z,5.17
2019-03-11T09:49:12.985Z,5.12
2019-03-11T09:53:19.947Z,5.31
2019-03-11T09:57:26.906Z,5.84
2019-03-11T10:01:34.770Z,5.83
2019-03-11T10:05:41.733Z,6.16
2019-03-11T10:09:48.572Z,6.27
2019-03-11T10:13:55.508Z,6.71
2019-03-11T10:18:02.540Z,6.19
2019-03-11T10:22:09.454Z,6.34
2019-03-11T10:26:16.402Z,6.92
2019-03-11T10:30:23.661Z,6.65
2019-03-11T10:34:30.505Z,6.76
2019-03-11T10:38:37.406Z,6.52
2019-03-11T10:42:44.547Z,6.27
2019-03-11T10:46:51.426Z,6.21
2019-03-11T10:50:58.373Z,6.55
2019-03-11T10:55:05.430Z,6.38
2019-03-11T10:59:12.347Z,6.60
2019-03-11T11:03:19.206Z,6.39
2019-03-11T11:07:26.081Z,6.59
2019-03-11T11:11:32.951Z,6.88
2019-03-11T11:15:39.786Z,6.65
2019-03-11T11:19:46.653Z,6.77
2019-03-11T11:23:53.523Z,6.85
2019-03-11T11:28:00.445Z,7.03
2019-03-11T11:32:07.325Z,7.06
2019-03-11T11:36:14.162Z,6.69
2019-03-11T11:40:23.694Z,6.84
2019-03-11T11:44:30.636Z,7.06
2019-03-11T11:48:37.440Z,6.65
2019-03-11T11:52:44.372Z,6.75
2019-03-11T11:56:51.295Z,6.65
2019-03-11T12:00:58.133Z,6.95
2019-03-11T12:05:05.199Z,6.69
2019-03-11T12:09:12.332Z,6.62
2019-03-11T12:13:19.911Z,6.79
2019-03-11T12:17:26.735Z,6.80
2019-03-11T12:21:34.600Z,6.84
2019-03-11T12:25:41.560Z,6.73
2019-03-11T12:29:48.436Z,6.81
2019-03-11T12:33:55.323Z,6.75
2019-03-11T12:38:02.234Z,6.89
2019-03-11T12:42:09.182Z,6.70
2019-03-11T12:46:16.068Z,6.76
2019-03-11T12:50:23.287Z,6.54
2019-03-11T12:54:30.211Z,6.63
2019-03-11T12:58:41.611Z,6.69
2019-03-11T13:02:45.734Z,6.64
2019-03-11T13:06:52.667Z,6.68
2019-03-11T13:10:59.463Z,6.83
2019-03-11T13:15:06.870Z,6.84
2019-03-11T13:19:13.856Z,6.70
2019-03-11T13:23:20.733Z,6.70
2019-03-11T13:27:28.026Z,6.76
2019-03-11T13:31:35.108Z,6.78
2019-03-11T13:35:42.040Z,6.89
2019-03-11T13:39:48.961Z,6.90
2019-03-11T13:43:55.773Z,6.91
2019-03-11T13:48:02.738Z,6.95
2019-03-11T13:52:09.743Z,6.99
2019-03-11T13:56:16.824Z,6.83
2019-03-11T14:00:23.714Z,6.80
2019-03-11T14:04:30.597Z,6.89
2019-03-11T14:08:37.448Z,7.06
2019-03-11T14:12:44.405Z,6.98
2019-03-11T14:16:51.330Z,7.13
2019-03-11T14:20:58.180Z,7.10
2019-03-11T14:25:06.672Z,7.12
2019-03-11T14:29:13.565Z,7.17
2019-03-11T14:33:20.505Z,7.17
2019-03-11T14:37:27.450Z,6.90
2019-03-11T14:41:34.421Z,6.96
2019-03-11T14:45:41.353Z,6.88
2019-03-11T14:49:48.246Z,7.04
2019-03-11T14:53:55.227Z,6.90
2019-03-11T14:58:02.124Z,7.07
2019-03-11T15:02:09.065Z,7.00
2019-03-11T15:06:16.201Z,6.97
2019-03-11T15:10:25.342Z,7.08
2019-03-11T15:14:33.716Z,6.98
2019-03-11T15:18:40.812Z,6.96
2019-03-11T15:22:48.065Z,6.88
2019-03-11T15:26:58.490Z,6.24
2019-03-11T15:31:10.590Z,6.14
2019-03-11T15:35:15.681Z,6.05
2019-03-11T15:39:25.539Z,6.18
2019-03-11T15:43:32.581Z,5.88
2019-03-11T15:47:39.459Z,5.90
2019-03-11T15:51:46.260Z,6.00
2019-03-11T15:55:53.271Z,6.09
2019-03-11T16:00:00.354Z,6.05
2019-03-11T16:04:07.164Z,6.11
2019-03-11T16:08:14.071Z,6.12
2019-03-11T16:12:49.823Z,6.25
2019-03-11T16:16:56.929Z,6.34
2019-03-11T16:21:04.969Z,6.29
2019-03-11T16:25:13.150Z,6.31
2019-03-11T16:29:20.230Z,6.22
2019-03-11T16:33:33.921Z,6.17
2019-03-11T16:37:45.631Z,6.28
2019-03-11T16:41:53.580Z,6.18
2019-03-11T16:46:00.838Z,6.26
2019-03-11T16:50:10.943Z,6.26
2019-03-11T16:54:19.413Z,6.44
2019-03-11T16:58:26.340Z,6.58
2019-03-11T17:02:33.225Z,6.61
2019-03-11T17:06:40.235Z,6.55
2019-03-11T17:10:48.648Z,6.53
2019-03-11T17:14:56.644Z,6.66
2019-03-11T17:19:03.929Z,6.66
2019-03-11T17:23:11.283Z,6.57
2019-03-11T17:27:18.218Z,6.69
2019-03-11T17:31:26.690Z,6.68
2019-03-11T17:35:37.666Z,6.61
2019-03-11T17:39:45.253Z,6.63
2019-03-11T17:43:52.261Z,6.65
2019-03-11T17:48:00.858Z,6.66
2019-03-11T17:52:08.033Z,6.67
2019-03-11T17:56:15.032Z,6.70
2019-03-11T18:00:26.261Z,6.72
2019-03-11T18:04:33.419Z,6.68
2019-03-11T18:08:40.341Z,6.62
2019-03-11T18:12:47.322Z,6.58
2019-03-11T18:16:54.207Z,6.59
2019-03-11T18:21:01.011Z,6.59
2019-03-11T18:25:10.617Z,6.54
2019-03-11T18:29:17.461Z,6.62
2019-03-11T18:33:24.281Z,6.65
2019-03-11T18:37:31.172Z,6.52
2019-03-11T18:41:38.073Z,6.59
2019-03-11T18:45:45.143Z,6.49
2019-03-11T18:49:52.053Z,6.46
2019-03-11T18:53:58.982Z,6.57
2019-03-11T18:58:06.006Z,6.49
2019-03-11T19:02:12.835Z,6.57
2019-03-11T19:06:19.976Z,6.42
2019-03-11T19:10:29.230Z,6.57
2019-03-11T19:14:38.380Z,6.43
2019-03-11T19:18:45.388Z,6.56
2019-03-11T19:22:52.530Z,6.41
2019-03-11T19:26:59.560Z,6.45
2019-03-11T19:31:06.626Z,6.41
2019-03-11T19:35:13.630Z,6.27
2019-03-11T19:39:21.381Z,6.34
2019-03-11T19:43:29.407Z,6.48
2019-03-11T19:47:36.417Z,6.38
2019-03-11T19:51:43.380Z,6.47
2019-03-11T19:55:50.390Z,6.40
2019-03-11T19:59:57.281Z,6.45
2019-03-11T20:04:04.909Z,6.34
2019-03-11T20:08:12.225Z,6.40
2019-03-11T20:12:19.338Z,6.34
2019-03-11T20:16:26.325Z,6.48
2019-03-11T20:20:33.405Z,6.46
2019-03-11T20:24:40.265Z,6.40
2019-03-11T20:28:49.885Z,6.43
2019-03-11T20:32:57.618Z,6.44
2019-03-11T20:37:04.743Z,6.57
2019-03-11T20:41:11.921Z,6.48
2019-03-11T20:45:19.528Z,6.36
2019-03-11T20:49:26.645Z,6.47
2019-03-11T20:53:34.050Z,6.39
2019-03-11T20:57:41.030Z,6.31
2019-03-11T21:01:48.030Z,6.45
2019-03-11T21:05:55.596Z,6.41
2019-03-11T21:10:03.654Z,6.29
2019-03-11T21:14:10.859Z,6.33
2019-03-11T21:18:17.921Z,6.44
2019-03-11T21:22:24.914Z,6.42
2019-03-11T21:26:32.093Z,6.40
2019-03-11T21:30:39.220Z,6.42
2019-03-11T21:34:46.080Z,6.46
2019-03-11T21:38:53.062Z,6.30
2019-03-11T21:43:00.079Z,6.41
2019-03-11T21:47:07.095Z,6.37
2019-03-11T21:51:14.052Z,6.31
2019-03-11T21:55:26.385Z,6.28
2019-03-11T21:59:37.638Z,6.30
2019-03-11T22:03:46.027Z,6.34
2019-03-11T22:07:52.998Z,6.24
2019-03-11T22:11:59.884Z,6.20
2019-03-11T22:16:06.882Z,6.44
2019-03-11T22:20:16.786Z,6.31
2019-03-11T22:24:23.707Z,6.20
2019-03-11T22:28:30.649Z,6.02
2019-03-11T22:32:40.547Z,6.01
2019-03-11T22:36:47.552Z,5.93
2019-03-11T22:40:54.662Z,5.93
2019-03-11T22:45:01.553Z,5.76
2019-03-11T22:49:08.951Z,5.70
2019-03-11T22:53:15.909Z,5.71
2019-03-11T22:57:23.042Z,5.69
2019-03-11T23:01:30.202Z,5.66
2019-03-11T23:05:56.871Z,5.69
2019-03-11T23:09:51.332Z,5.62
2019-03-11T23:13:58.236Z,5.68
2019-03-11T23:18:05.256Z,5.69
2019-03-11T23:22:30.392Z,5.62
2019-03-11T23:26:41.587Z,5.70
2019-03-11T23:30:54.027Z,5.79
2019-03-11T23:35:02.229Z,5.86
2019-03-11T23:39:09.819Z,5.86
2019-03-11T23:43:16.821Z,5.91
2019-03-11T23:47:23.653Z,5.95
2019-03-11T23:51:30.469Z,5.95
2019-03-11T23:55:38.502Z,5.90
2019-03-11T23:59:45.372Z,5.90
